METAR Data
IDs: Format: Raw Decoded Include TAF

Data at: 2316 UTC 26 Feb 2020

KOXV 262315Z AUTO 33013KT 10SM CLR M00/M11 A3025 RMK AO2
KOXV 262255Z AUTO 35012G18KT 10SM CLR 00/M11 A3024 RMK AO2
KOXV 262235Z AUTO 32014KT 10SM FEW049 00/M11 A3025 RMK AO2
KOXV 262215Z AUTO 33014G21KT 10SM FEW049 00/M11 A3024 RMK AO2
KOXV 262155Z AUTO 35015G21KT 10SM FEW048 01/M11 A3024 RMK AO2
KOXV 262135Z AUTO 33015G22KT 10SM SCT044 00/M10 A3024 RMK AO2
KOXV 262115Z AUTO 34015G21KT 10SM FEW035 BKN044 01/M10 A3023 RMK AO2
KOXV 262055Z AUTO 34012KT 10SM SCT034 BKN042 BKN047 00/M07 A3024 RMK AO2
KOXV 262035Z AUTO 34012KT 10SM BKN036 OVC042 M00/M06 A3024 RMK AO2
KOXV 262015Z AUTO 34011KT 10SM FEW030 SCT035 OVC041 M01/M06 A3024 RMK AO2
KOXV 261955Z AUTO 34011G19KT 10SM SCT028 BKN034 OVC042 M00/M07 A3024 RMK AO2
KOXV 261935Z AUTO 33013G19KT 10SM BKN027 BKN033 OVC038 M01/M06 A3025 RMK AO2
KOXV 261915Z AUTO 34014G20KT 10SM SCT024 BKN028 OVC039 M01/M06 A3025 RMK AO2
KOXV 261855Z AUTO 32013G22KT 10SM BKN023 BKN030 M01/M05 A3025 RMK AO2
KOXV 261835Z AUTO 32015G23KT 10SM BKN020 BKN024 BKN029 M01/M05 A3026 RMK AO2
KOXV 261815Z AUTO 33013G19KT 10SM BKN019 BKN043 M01/M05 A3027 RMK AO2
KOXV 261755Z AUTO 34015G21KT 10SM BKN017 BKN043 M02/M05 A3028 RMK AO2
KOXV 261735Z AUTO 33014G21KT 10SM OVC016 M02/M05 A3029 RMK AO2
KOXV 261715Z AUTO 32014G20KT 10SM OVC015 M03/M05 A3029 RMK AO2
KOXV 261655Z AUTO 32013G21KT 10SM OVC015 M03/M05 A3029 RMK AO2
KOXV 261635Z AUTO 34012G18KT 10SM OVC014 M03/M05 A3029 RMK AO2
KOXV 261615Z AUTO 34014G21KT 10SM OVC014 M03/M05 A3028 RMK AO2
KOXV 261555Z AUTO 33013G19KT 10SM OVC014 M03/M04 A3028 RMK AO2
KOXV 261535Z AUTO 33014G22KT 10SM OVC014 M03/M04 A3028 RMK AO2
KOXV 261515Z AUTO 33016KT 10SM OVC014 M03/M04 A3027 RMK AO2
KOXV 261455Z AUTO 33016KT 10SM OVC013 M03/M04 A3027 RMK AO2
KOXV 261435Z AUTO 33017KT 10SM BKN013 OVC060 M03/M04 A3026 RMK AO2
KOXV 261415Z AUTO 33014G19KT 10SM BKN013 SCT050 BKN060 M03/M04 A3026 RMK AO2
KOXV 261355Z AUTO 33012G17KT 10SM BKN013 BKN060 M03/M04 A3026 RMK AO2
KOXV 261335Z AUTO 33015KT 10SM SCT012 BKN049 OVC060 M03/M04 A3025 RMK AO2
KOXV 261315Z AUTO 33011KT 10SM SCT048 BKN060 OVC140 M04/M04 A3025 RMK AO2
KOXV 261255Z AUTO 33010KT 10SM FEW048 FEW100 BKN130 M04/M04 A3025 RMK AO2
KOXV 261235Z AUTO 33011KT 10SM SCT049 BKN140 BKN170 M04/M04 A3025 RMK AO2
KOXV 261215Z AUTO 33013KT 10SM SCT140 BKN160 M04/M04 A3025 RMK AO2
KOXV 261155Z AUTO 33012G17KT 10SM FEW130 BKN150 M03/M03 A3024 RMK AO2
KOXV 261135Z AUTO 33012KT 10SM BKN140 OVC160 M03/M03 A3024 RMK AO2
KOXV 261115Z AUTO 33012KT 10SM FEW014 FEW120 BKN140 M03/M03 A3023 RMK AO2
KOXV 261055Z AUTO 33011KT 10SM BKN120 BKN150 M03/M03 A3023 RMK AO2
KOXV 261035Z AUTO 33014G19KT 10SM FEW150 M02/M03 A3022 RMK AO2
KOXV 261015Z AUTO 34012KT 10SM FEW120 M02/M03 A3022 RMK AO2
KOXV 260955Z AUTO 34011G17KT 10SM SCT090 SCT130 M02/M05 A3022 RMK AO2
KOXV 260935Z AUTO 34010G16KT 10SM OVC090 M01/M06 A3022 RMK AO2
KOXV 260915Z AUTO 35011G16KT 10SM SCT050 SCT070 OVC085 M01/M06 A3021 RMK AO2
KOXV 260855Z AUTO 35010G16KT 10SM OVC050 M01/M06 A3021 RMK AO2
KOXV 260835Z AUTO 36010G16KT 10SM OVC050 M01/M06 A3021 RMK AO2
KOXV 260815Z AUTO 36013G18KT 10SM BKN050 OVC055 M01/M06 A3022 RMK AO2
KOXV 260755Z AUTO 36011G17KT 10SM FEW050 OVC055 M01/M06 A3022 RMK AO2
KOXV 260735Z AUTO 36011KT 10SM OVC055 M00/M06 A3022 RMK AO2
KOXV 260715Z AUTO 35012KT 10SM OVC060 M00/M06 A3022 RMK AO2
KOXV 260655Z AUTO 35013G18KT 10SM OVC055 M00/M05 A3022 RMK AO2
KOXV 260635Z AUTO 35013G18KT 10SM BKN050 OVC060 M00/M05 A3022 RMK AO2
KOXV 260615Z AUTO 36014G19KT 10SM OVC050 M00/M05 A3021 RMK AO2
KOXV 260555Z AUTO 35013KT 10SM BKN050 OVC060 M00/M05 A3021 RMK AO2
KOXV 260535Z AUTO 35014KT 10SM BKN048 OVC055 M00/M05 A3021 RMK AO2
KOXV 260515Z AUTO 35012KT 10SM OVC046 M00/M05 A3022 RMK AO2
KOXV 260455Z AUTO 35013KT 10SM OVC044 M00/M05 A3022 RMK AO2
KOXV 260435Z AUTO 36010KT 10SM OVC042 M00/M05 A3022 RMK AO2
KOXV 260415Z AUTO 35009G17KT 10SM OVC042 M00/M05 A3022 RMK AO2
KOXV 260355Z AUTO 36012KT 10SM OVC042 M00/M05 A3022 RMK AO2
KOXV 260335Z AUTO 36011KT 10SM OVC040 M00/M04 A3022 RMK AO2
KOXV 260315Z AUTO 36011G17KT 10SM OVC040 M00/M04 A3022 RMK AO2
KOXV 260255Z AUTO 36011KT 10SM OVC040 M00/M04 A3021 RMK AO2
KOXV 260235Z AUTO 36013G19KT 10SM OVC040 00/M04 A3021 RMK AO2
KOXV 260215Z AUTO 01012KT 10SM OVC038 00/M04 A3021 RMK AO2
KOXV 260155Z AUTO 36013KT 10SM OVC037 00/M04 A3020 RMK AO2
KOXV 260135Z AUTO 01010G20KT 10SM OVC036 00/M04 A3020 RMK AO2
KOXV 260115Z AUTO 36013G19KT 10SM OVC035 00/M04 A3020 RMK AO2
KOXV 260055Z AUTO 36011G19KT 10SM OVC034 01/M04 A3019 RMK AO2
KOXV 260035Z AUTO 36012G18KT 10SM FEW024 SCT029 OVC034 01/M03 A3018 RMK AO2
KOXV 260015Z AUTO 01011G17KT 10SM OVC033 01/M04 A3017 RMK AO2
KOXV 252355Z AUTO 01014KT 10SM OVC033 01/M04 A3015 RMK AO2
KOXV 252335Z AUTO 01013KT 10SM OVC031 01/M04 A3014 RMK AO2
KOXV 252315Z AUTO 02013G19KT 10SM BKN031 02/M04 A3013 RMK AO2
KOXV 252255Z AUTO 01015G22KT 10SM BKN031 02/M04 A3012 RMK AO2
KOXV 252235Z AUTO 02014G20KT 10SM SCT029 02/M04 A3011 RMK AO2
KOXV 252215Z AUTO 01016G22KT 10SM SCT028 02/M04 A3011 RMK AO2
KOXV 252155Z AUTO 02018G23KT 10SM SCT028 03/M03 A3010 RMK AO2
KOXV 252135Z AUTO 02015G21KT 10SM SCT028 03/M03 A3010 RMK AO2
KOXV 252115Z AUTO 01017G24KT 10SM FEW028 03/M03 A3009 RMK AO2
KOXV 252055Z AUTO 01013G20KT 10SM FEW028 FEW110 03/M03 A3009 RMK AO2
KOXV 252035Z AUTO 02017KT 10SM FEW029 SCT110 03/M03 A3008 RMK AO2
KOXV 252015Z AUTO 03012G20KT 10SM CLR 04/M03 A3007 RMK AO2
KOXV 251955Z AUTO 01016G21KT 10SM CLR 04/M03 A3007 RMK AO2
KOXV 251935Z AUTO 02015G20KT 10SM CLR 04/M03 A3006 RMK AO2
KOXV 251915Z AUTO 02016G22KT 10SM FEW120 04/M03 A3006 RMK AO2
KOXV 251855Z AUTO 02011G21KT 340V040 10SM CLR 04/M02 A3006 RMK AO2
KOXV 251835Z AUTO 02015G22KT 350V050 10SM CLR 04/M03 A3006 RMK AO2
KOXV 251815Z AUTO 02014G21KT 10SM CLR 04/M02 A3006 RMK AO2
KOXV 251755Z AUTO 03013G21KT 10SM CLR 04/M03 A3006 RMK AO2
KOXV 251735Z AUTO 03016G22KT 10SM CLR 03/M03 A3006 RMK AO2
KOXV 251715Z AUTO 03015KT 10SM CLR 03/M02 A3006 RMK AO2
KOXV 251655Z AUTO 04015G22KT 10SM CLR 03/M03 A3005 RMK AO2
KOXV 251635Z AUTO 04015G20KT 10SM CLR 02/M02 A3005 RMK AO2
KOXV 251615Z AUTO 04013G20KT 10SM CLR 02/M02 A3005 RMK AO2
KOXV 251555Z AUTO 04014KT 10SM CLR 02/M02 A3004 RMK AO2
KOXV 251535Z AUTO 04013G19KT 10SM CLR 01/M02 A3004 RMK AO2
KOXV 251515Z AUTO 04013KT 10SM CLR 01/M02 A3003 RMK AO2
KOXV 251455Z AUTO 04011G18KT 10SM CLR 01/M02 A3003 RMK AO2
KOXV 251435Z AUTO 04010G16KT 10SM CLR 00/M02 A3002 RMK AO2
KOXV 251415Z AUTO 04010G16KT 10SM CLR 00/M02 A3001 RMK AO2
KOXV 251355Z AUTO 03011KT 10SM CLR 00/M02 A3000 RMK AO2
KOXV 251335Z AUTO 03009KT 10SM CLR 00/M03 A2999 RMK AO2
KOXV 251315Z AUTO 03008KT 10SM SCT140 M00/M03 A2998 RMK AO2
KOXV 251255Z AUTO 03012KT 10SM FEW120 BKN140 M00/M03 A2997 RMK AO2
KOXV 251235Z AUTO 03010KT 10SM SCT110 OVC140 M00/M03 A2997 RMK AO2
KOXV 251215Z AUTO 02010KT 10SM BKN110 OVC140 M00/M03 A2997 RMK AO2
KOXV 251155Z AUTO 02008KT 10SM OVC110 M00/M03 A2996 RMK AO2
KOXV 251135Z AUTO 02009KT 10SM OVC110 M00/M03 A2995 RMK AO2